sensor_id;sensor_type;location;lat;lon;timestamp;P1;durP1;ratioP1;P2;durP2;ratioP2
64712;SDS011;51140;45.340;5.980;2023-01-08T00:01:50;9.30;;;3.92;;
64712;SDS011;51140;45.340;5.980;2023-01-08T00:04:15;10.07;;;5.57;;
64712;SDS011;51140;45.340;5.980;2023-01-08T00:06:43;11.63;;;4.90;;
64712;SDS011;51140;45.340;5.980;2023-01-08T00:09:09;8.50;;;4.10;;
64712;SDS011;51140;45.340;5.980;2023-01-08T00:11:35;6.35;;;2.92;;
64712;SDS011;51140;45.340;5.980;2023-01-08T00:14:01;6.32;;;2.80;;
64712;SDS011;51140;45.340;5.980;2023-01-08T00:16:26;5.72;;;2.55;;
64712;SDS011;51140;45.340;5.980;2023-01-08T00:18:52;6.85;;;2.70;;
64712;SDS011;51140;45.340;5.980;2023-01-08T00:21:17;10.02;;;5.07;;
64712;SDS011;51140;45.340;5.980;2023-01-08T00:23:43;10.05;;;4.60;;
64712;SDS011;51140;45.340;5.980;2023-01-08T00:26:09;8.00;;;4.05;;
64712;SDS011;51140;45.340;5.980;2023-01-08T00:28:35;10.35;;;5.13;;
64712;SDS011;51140;45.340;5.980;2023-01-08T00:31:04;10.10;;;5.38;;
64712;SDS011;51140;45.340;5.980;2023-01-08T00:33:34;11.68;;;5.90;;
64712;SDS011;51140;45.340;5.980;2023-01-08T00:36:00;11.07;;;5.30;;
64712;SDS011;51140;45.340;5.980;2023-01-08T00:38:30;7.80;;;3.25;;
64712;SDS011;51140;45.340;5.980;2023-01-08T00:40:55;7.35;;;3.58;;
64712;SDS011;51140;45.340;5.980;2023-01-08T00:43:21;8.88;;;2.97;;
64712;SDS011;51140;45.340;5.980;2023-01-08T00:45:46;6.65;;;2.50;;
64712;SDS011;51140;45.340;5.980;2023-01-08T00:48:12;5.03;;;2.22;;
64712;SDS011;51140;45.340;5.980;2023-01-08T00:50:37;18.58;;;5.35;;
64712;SDS011;51140;45.340;5.980;2023-01-08T00:53:02;8.80;;;3.50;;
64712;SDS011;51140;45.340;5.980;2023-01-08T00:55:28;6.80;;;3.13;;
64712;SDS011;51140;45.340;5.980;2023-01-08T00:57:54;6.70;;;2.90;;
64712;SDS011;51140;45.340;5.980;2023-01-08T01:00:22;5.82;;;2.60;;
64712;SDS011;51140;45.340;5.980;2023-01-08T01:02:48;8.18;;;2.60;;
64712;SDS011;51140;45.340;5.980;2023-01-08T01:05:13;6.75;;;2.30;;
64712;SDS011;51140;45.340;5.980;2023-01-08T01:07:39;6.40;;;2.13;;
64712;SDS011;51140;45.340;5.980;2023-01-08T01:10:06;4.20;;;1.60;;
64712;SDS011;51140;45.340;5.980;2023-01-08T01:12:32;5.50;;;1.65;;
64712;SDS011;51140;45.340;5.980;2023-01-08T01:14:57;8.20;;;3.33;;
64712;SDS011;51140;45.340;5.980;2023-01-08T01:17:23;7.82;;;3.40;;
64712;SDS011;51140;45.340;5.980;2023-01-08T01:19:48;5.90;;;2.60;;
64712;SDS011;51140;45.340;5.980;2023-01-08T01:22:14;8.52;;;2.95;;
64712;SDS011;51140;45.340;5.980;2023-01-08T01:24:39;8.65;;;4.00;;
64712;SDS011;51140;45.340;5.980;2023-01-08T01:27:05;6.60;;;2.90;;
64712;SDS011;51140;45.340;5.980;2023-01-08T01:29:30;7.78;;;2.85;;
64712;SDS011;51140;45.340;5.980;2023-01-08T01:31:55;7.80;;;3.15;;
64712;SDS011;51140;45.340;5.980;2023-01-08T01:34:21;10.60;;;4.70;;
64712;SDS011;51140;45.340;5.980;2023-01-08T01:36:46;8.98;;;4.38;;
64712;SDS011;51140;45.340;5.980;2023-01-08T01:39:12;8.32;;;3.92;;
64712;SDS011;51140;45.340;5.980;2023-01-08T01:41:41;11.07;;;4.70;;
64712;SDS011;51140;45.340;5.980;2023-01-08T01:47:08;7.93;;;3.17;;
64712;SDS011;51140;45.340;5.980;2023-01-08T01:49:59;7.35;;;3.00;;
64712;SDS011;51140;45.340;5.980;2023-01-08T01:52:32;8.20;;;3.50;;
64712;SDS011;51140;45.340;5.980;2023-01-08T01:55:03;10.13;;;4.82;;
64712;SDS011;51140;45.340;5.980;2023-01-08T01:57:30;10.45;;;5.07;;
64712;SDS011;51140;45.340;5.980;2023-01-08T01:59:57;9.82;;;4.38;;
64712;SDS011;51140;45.340;5.980;2023-01-08T02:02:24;10.70;;;4.70;;
64712;SDS011;51140;45.340;5.980;2023-01-08T02:04:49;8.95;;;4.10;;
64712;SDS011;51140;45.340;5.980;2023-01-08T02:07:21;9.88;;;3.90;;
64712;SDS011;51140;45.340;5.980;2023-01-08T02:09:51;7.13;;;3.25;;
64712;SDS011;51140;45.340;5.980;2023-01-08T02:12:28;7.30;;;3.00;;
64712;SDS011;51140;45.340;5.980;2023-01-08T02:15:15;7.53;;;3.00;;
64712;SDS011;51140;45.340;5.980;2023-01-08T02:17:49;9.65;;;3.00;;
64712;SDS011;51140;45.340;5.980;2023-01-08T02:20:29;6.72;;;2.67;;
64712;SDS011;51140;45.340;5.980;2023-01-08T02:28:19;10.93;;;4.80;;
64712;SDS011;51140;45.340;5.980;2023-01-08T02:30:46;10.43;;;4.47;;
64712;SDS011;51140;45.340;5.980;2023-01-08T02:33:13;8.40;;;4.40;;
64712;SDS011;51140;45.340;5.980;2023-01-08T02:35:39;8.73;;;4.13;;
64712;SDS011;51140;45.340;5.980;2023-01-08T02:38:12;8.95;;;3.65;;
64712;SDS011;51140;45.340;5.980;2023-01-08T02:40:53;8.00;;;3.03;;
64712;SDS011;51140;45.340;5.980;2023-01-08T02:43:34;7.10;;;3.03;;
64712;SDS011;51140;45.340;5.980;2023-01-08T02:46:02;7.05;;;3.20;;
64712;SDS011;51140;45.340;5.980;2023-01-08T02:53:33;6.43;;;2.38;;
64712;SDS011;51140;45.340;5.980;2023-01-08T02:56:07;6.20;;;2.47;;
64712;SDS011;51140;45.340;5.980;2023-01-08T02:58:36;8.77;;;3.10;;
64712;SDS011;51140;45.340;5.980;2023-01-08T03:01:05;6.72;;;3.17;;
64712;SDS011;51140;45.340;5.980;2023-01-08T03:03:33;9.20;;;3.28;;
64712;SDS011;51140;45.340;5.980;2023-01-08T03:06:03;9.13;;;3.78;;
64712;SDS011;51140;45.340;5.980;2023-01-08T03:08:35;8.63;;;3.67;;
64712;SDS011;51140;45.340;5.980;2023-01-08T03:11:04;6.68;;;2.88;;
64712;SDS011;51140;45.340;5.980;2023-01-08T03:14:14;8.23;;;3.03;;
64712;SDS011;51140;45.340;5.980;2023-01-08T03:16:34;6.18;;;2.75;;
64712;SDS011;51140;45.340;5.980;2023-01-08T03:19:22;7.15;;;2.83;;
64712;SDS011;51140;45.340;5.980;2023-01-08T03:21:50;7.28;;;2.75;;
64712;SDS011;51140;45.340;5.980;2023-01-08T03:24:17;9.00;;;3.35;;
64712;SDS011;51140;45.340;5.980;2023-01-08T03:26:49;7.38;;;2.97;;
64712;SDS011;51140;45.340;5.980;2023-01-08T03:29:18;8.07;;;2.88;;
64712;SDS011;51140;45.340;5.980;2023-01-08T03:31:46;5.07;;;2.28;;
64712;SDS011;51140;45.340;5.980;2023-01-08T03:34:13;5.80;;;2.55;;
64712;SDS011;51140;45.340;5.980;2023-01-08T03:36:40;5.72;;;2.55;;
64712;SDS011;51140;45.340;5.980;2023-01-08T03:39:19;6.30;;;2.50;;
64712;SDS011;51140;45.340;5.980;2023-01-08T03:41:51;7.50;;;2.33;;
64712;SDS011;51140;45.340;5.980;2023-01-08T03:44:21;5.47;;;2.17;;
64712;SDS011;51140;45.340;5.980;2023-01-08T03:46:48;5.22;;;1.90;;
64712;SDS011;51140;45.340;5.980;2023-01-08T03:49:16;5.70;;;1.88;;
64712;SDS011;51140;45.340;5.980;2023-01-08T03:51:44;6.13;;;1.95;;
64712;SDS011;51140;45.340;5.980;2023-01-08T03:54:15;7.80;;;2.25;;
64712;SDS011;51140;45.340;5.980;2023-01-08T03:56:46;6.50;;;2.60;;
64712;SDS011;51140;45.340;5.980;2023-01-08T03:59:12;6.10;;;2.42;;
64712;SDS011;51140;45.340;5.980;2023-01-08T04:01:38;7.45;;;2.50;;
64712;SDS011;51140;45.340;5.980;2023-01-08T04:04:04;5.72;;;2.35;;
64712;SDS011;51140;45.340;5.980;2023-01-08T04:06:29;5.80;;;2.15;;
64712;SDS011;51140;45.340;5.980;2023-01-08T04:08:55;8.57;;;2.38;;
64712;SDS011;51140;45.340;5.980;2023-01-08T04:11:20;7.63;;;3.58;;
64712;SDS011;51140;45.340;5.980;2023-01-08T04:13:46;7.88;;;3.53;;
64712;SDS011;51140;45.340;5.980;2023-01-08T04:16:11;8.52;;;3.30;;
64712;SDS011;51140;45.340;5.980;2023-01-08T04:18:37;11.20;;;4.00;;
64712;SDS011;51140;45.340;5.980;2023-01-08T04:21:02;6.57;;;2.92;;
64712;SDS011;51140;45.340;5.980;2023-01-08T04:23:28;7.00;;;2.90;;
64712;SDS011;51140;45.340;5.980;2023-01-08T04:25:53;10.05;;;3.15;;
64712;SDS011;51140;45.340;5.980;2023-01-08T04:28:19;8.05;;;3.10;;
64712;SDS011;51140;45.340;5.980;2023-01-08T04:30:45;6.50;;;2.60;;
64712;SDS011;51140;45.340;5.980;2023-01-08T04:33:10;6.07;;;2.80;;
64712;SDS011;51140;45.340;5.980;2023-01-08T04:35:36;6.47;;;2.42;;
64712;SDS011;51140;45.340;5.980;2023-01-08T04:38:01;6.75;;;2.60;;
64712;SDS011;51140;45.340;5.980;2023-01-08T04:40:26;5.15;;;2.15;;
64712;SDS011;51140;45.340;5.980;2023-01-08T04:42:52;6.47;;;1.90;;
64712;SDS011;51140;45.340;5.980;2023-01-08T04:45:17;5.65;;;2.10;;
64712;SDS011;51140;45.340;5.980;2023-01-08T04:47:43;5.40;;;2.03;;
64712;SDS011;51140;45.340;5.980;2023-01-08T04:50:09;6.40;;;2.10;;
64712;SDS011;51140;45.340;5.980;2023-01-08T04:52:34;5.60;;;2.25;;
64712;SDS011;51140;45.340;5.980;2023-01-08T04:55:00;6.18;;;2.55;;
64712;SDS011;51140;45.340;5.980;2023-01-08T04:57:25;7.32;;;2.22;;
64712;SDS011;51140;45.340;5.980;2023-01-08T04:59:51;5.43;;;2.20;;
64712;SDS011;51140;45.340;5.980;2023-01-08T05:02:16;6.03;;;2.33;;
64712;SDS011;51140;45.340;5.980;2023-01-08T05:04:41;6.78;;;2.20;;
64712;SDS011;51140;45.340;5.980;2023-01-08T05:07:07;5.88;;;2.10;;
64712;SDS011;51140;45.340;5.980;2023-01-08T05:09:32;6.72;;;2.30;;
64712;SDS011;51140;45.340;5.980;2023-01-08T05:11:58;5.28;;;2.38;;
64712;SDS011;51140;45.340;5.980;2023-01-08T05:14:23;5.63;;;2.20;;
64712;SDS011;51140;45.340;5.980;2023-01-08T05:16:49;6.22;;;2.33;;
64712;SDS011;51140;45.340;5.980;2023-01-08T05:19:14;5.70;;;2.03;;
64712;SDS011;51140;45.340;5.980;2023-01-08T05:21:40;5.20;;;2.38;;
64712;SDS011;51140;45.340;5.980;2023-01-08T05:24:05;5.00;;;2.00;;
64712;SDS011;51140;45.340;5.980;2023-01-08T05:26:30;6.55;;;2.30;;
64712;SDS011;51140;45.340;5.980;2023-01-08T05:28:56;8.57;;;2.40;;
64712;SDS011;51140;45.340;5.980;2023-01-08T05:31:22;5.60;;;2.22;;
64712;SDS011;51140;45.340;5.980;2023-01-08T05:33:47;7.15;;;2.15;;
64712;SDS011;51140;45.340;5.980;2023-01-08T05:36:13;8.07;;;2.10;;
64712;SDS011;51140;45.340;5.980;2023-01-08T05:38:39;7.28;;;2.45;;
64712;SDS011;51140;45.340;5.980;2023-01-08T05:41:05;6.68;;;2.72;;
64712;SDS011;51140;45.340;5.980;2023-01-08T05:43:31;6.32;;;2.17;;
64712;SDS011;51140;45.340;5.980;2023-01-08T05:45:59;5.65;;;2.10;;
64712;SDS011;51140;45.340;5.980;2023-01-08T05:48:26;8.07;;;2.28;;
64712;SDS011;51140;45.340;5.980;2023-01-08T05:50:53;4.07;;;1.70;;
64712;SDS011;51140;45.340;5.980;2023-01-08T05:53:18;4.93;;;1.45;;
64712;SDS011;51140;45.340;5.980;2023-01-08T05:55:43;5.78;;;2.40;;
64712;SDS011;51140;45.340;5.980;2023-01-08T05:58:09;6.20;;;1.80;;
64712;SDS011;51140;45.340;5.980;2023-01-08T06:00:36;6.72;;;2.03;;
64712;SDS011;51140;45.340;5.980;2023-01-08T06:03:02;5.63;;;2.40;;
64712;SDS011;51140;45.340;5.980;2023-01-08T06:05:29;6.60;;;2.60;;
64712;SDS011;51140;45.340;5.980;2023-01-08T06:07:56;5.15;;;2.22;;
64712;SDS011;51140;45.340;5.980;2023-01-08T06:10:22;6.38;;;2.30;;
64712;SDS011;51140;45.340;5.980;2023-01-08T06:12:47;9.43;;;4.15;;
64712;SDS011;51140;45.340;5.980;2023-01-08T06:15:13;6.38;;;2.80;;
64712;SDS011;51140;45.340;5.980;2023-01-08T06:17:38;5.95;;;2.28;;
64712;SDS011;51140;45.340;5.980;2023-01-08T06:20:04;6.68;;;2.30;;
64712;SDS011;51140;45.340;5.980;2023-01-08T06:22:30;7.93;;;2.60;;
64712;SDS011;51140;45.340;5.980;2023-01-08T06:24:55;6.15;;;2.45;;
64712;SDS011;51140;45.340;5.980;2023-01-08T06:27:20;6.65;;;2.60;;
64712;SDS011;51140;45.340;5.980;2023-01-08T06:29:46;6.05;;;2.47;;
64712;SDS011;51140;45.340;5.980;2023-01-08T06:32:11;9.75;;;2.78;;
64712;SDS011;51140;45.340;5.980;2023-01-08T06:34:36;6.60;;;2.83;;
64712;SDS011;51140;45.340;5.980;2023-01-08T06:37:02;6.22;;;2.53;;
64712;SDS011;51140;45.340;5.980;2023-01-08T06:39:27;6.82;;;2.83;;
64712;SDS011;51140;45.340;5.980;2023-01-08T06:41:53;5.93;;;2.60;;
64712;SDS011;51140;45.340;5.980;2023-01-08T06:44:18;7.78;;;2.47;;
64712;SDS011;51140;45.340;5.980;2023-01-08T06:46:44;6.72;;;2.50;;
64712;SDS011;51140;45.340;5.980;2023-01-08T06:49:09;6.28;;;2.50;;
64712;SDS011;51140;45.340;5.980;2023-01-08T06:51:35;5.72;;;2.25;;
64712;SDS011;51140;45.340;5.980;2023-01-08T06:54:01;5.53;;;2.47;;
64712;SDS011;51140;45.340;5.980;2023-01-08T06:56:26;6.55;;;2.90;;
64712;SDS011;51140;45.340;5.980;2023-01-08T06:58:52;7.10;;;2.60;;
64712;SDS011;51140;45.340;5.980;2023-01-08T07:01:18;6.70;;;2.70;;
64712;SDS011;51140;45.340;5.980;2023-01-08T07:03:43;6.07;;;2.55;;
64712;SDS011;51140;45.340;5.980;2023-01-08T07:06:13;7.38;;;2.80;;
64712;SDS011;51140;45.340;5.980;2023-01-08T07:08:41;11.00;;;6.20;;
64712;SDS011;51140;45.340;5.980;2023-01-08T07:11:07;5.63;;;2.20;;
64712;SDS011;51140;45.340;5.980;2023-01-08T07:13:32;6.32;;;2.67;;
64712;SDS011;51140;45.340;5.980;2023-01-08T07:15:58;7.35;;;2.88;;
64712;SDS011;51140;45.340;5.980;2023-01-08T07:18:29;7.43;;;2.75;;
64712;SDS011;51140;45.340;5.980;2023-01-08T07:20:55;9.07;;;4.50;;
64712;SDS011;51140;45.340;5.980;2023-01-08T07:23:20;13.55;;;6.63;;
64712;SDS011;51140;45.340;5.980;2023-01-08T07:25:45;8.32;;;3.63;;
64712;SDS011;51140;45.340;5.980;2023-01-08T07:28:11;9.75;;;3.35;;
64712;SDS011;51140;45.340;5.980;2023-01-08T07:30:37;7.32;;;3.13;;
64712;SDS011;51140;45.340;5.980;2023-01-08T07:33:02;7.80;;;3.85;;
64712;SDS011;51140;45.340;5.980;2023-01-08T07:35:28;8.75;;;3.80;;
64712;SDS011;51140;45.340;5.980;2023-01-08T07:37:53;45.47;;;25.15;;
64712;SDS011;51140;45.340;5.980;2023-01-08T07:40:19;7.88;;;4.10;;
64712;SDS011;51140;45.340;5.980;2023-01-08T07:42:44;7.80;;;3.10;;
64712;SDS011;51140;45.340;5.980;2023-01-08T07:45:10;7.15;;;3.28;;
64712;SDS011;51140;45.340;5.980;2023-01-08T07:47:35;6.18;;;2.47;;
64712;SDS011;51140;45.340;5.980;2023-01-08T07:50:01;8.45;;;3.22;;
64712;SDS011;51140;45.340;5.980;2023-01-08T07:52:26;8.23;;;2.97;;
64712;SDS011;51140;45.340;5.980;2023-01-08T07:54:51;9.75;;;4.82;;
64712;SDS011;51140;45.340;5.980;2023-01-08T07:57:17;8.57;;;3.30;;
64712;SDS011;51140;45.340;5.980;2023-01-08T07:59:42;8.93;;;3.35;;
64712;SDS011;51140;45.340;5.980;2023-01-08T08:02:09;10.95;;;2.85;;
64712;SDS011;51140;45.340;5.980;2023-01-08T08:04:35;8.55;;;2.33;;
64712;SDS011;51140;45.340;5.980;2023-01-08T08:07:00;10.20;;;3.70;;
64712;SDS011;51140;45.340;5.980;2023-01-08T08:09:26;10.88;;;4.53;;
64712;SDS011;51140;45.340;5.980;2023-01-08T08:11:51;8.20;;;3.67;;
64712;SDS011;51140;45.340;5.980;2023-01-08T08:14:16;8.00;;;3.10;;
64712;SDS011;51140;45.340;5.980;2023-01-08T08:16:42;7.85;;;3.63;;
64712;SDS011;51140;45.340;5.980;2023-01-08T08:19:07;8.32;;;3.42;;
64712;SDS011;51140;45.340;5.980;2023-01-08T08:21:33;9.32;;;3.55;;
64712;SDS011;51140;45.340;5.980;2023-01-08T08:23:58;11.13;;;4.85;;
64712;SDS011;51140;45.340;5.980;2023-01-08T08:26:23;15.52;;;8.40;;
64712;SDS011;51140;45.340;5.980;2023-01-08T08:28:49;23.02;;;14.75;;
64712;SDS011;51140;45.340;5.980;2023-01-08T08:31:14;19.02;;;13.55;;
64712;SDS011;51140;45.340;5.980;2023-01-08T08:33:40;12.65;;;7.13;;
64712;SDS011;51140;45.340;5.980;2023-01-08T08:36:05;12.75;;;8.27;;
64712;SDS011;51140;45.340;5.980;2023-01-08T08:38:31;9.02;;;4.78;;
64712;SDS011;51140;45.340;5.980;2023-01-08T08:40:57;31.50;;;15.98;;
64712;SDS011;51140;45.340;5.980;2023-01-08T08:43:23;68.18;;;31.88;;
64712;SDS011;51140;45.340;5.980;2023-01-08T08:45:48;12.70;;;5.47;;
64712;SDS011;51140;45.340;5.980;2023-01-08T08:48:13;7.57;;;3.33;;
64712;SDS011;51140;45.340;5.980;2023-01-08T08:50:41;31.48;;;13.23;;
64712;SDS011;51140;45.340;5.980;2023-01-08T08:53:06;14.13;;;6.80;;
64712;SDS011;51140;45.340;5.980;2023-01-08T08:55:33;23.92;;;11.73;;
64712;SDS011;51140;45.340;5.980;2023-01-08T08:58:03;12.80;;;6.25;;
64712;SDS011;51140;45.340;5.980;2023-01-08T09:00:29;51.13;;;23.98;;
64712;SDS011;51140;45.340;5.980;2023-01-08T09:02:55;10.93;;;3.60;;
64712;SDS011;51140;45.340;5.980;2023-01-08T09:05:20;7.65;;;3.28;;
64712;SDS011;51140;45.340;5.980;2023-01-08T09:07:46;10.20;;;5.25;;
64712;SDS011;51140;45.340;5.980;2023-01-08T09:10:11;7.53;;;3.92;;
64712;SDS011;51140;45.340;5.980;2023-01-08T09:12:36;8.00;;;3.38;;
64712;SDS011;51140;45.340;5.980;2023-01-08T09:15:02;6.38;;;3.20;;
64712;SDS011;51140;45.340;5.980;2023-01-08T09:17:27;35.40;;;27.17;;
64712;SDS011;51140;45.340;5.980;2023-01-08T09:19:53;12.13;;;7.47;;
64712;SDS011;51140;45.340;5.980;2023-01-08T09:22:19;13.68;;;6.32;;
64712;SDS011;51140;45.340;5.980;2023-01-08T09:24:44;9.85;;;5.30;;
64712;SDS011;51140;45.340;5.980;2023-01-08T09:27:10;9.93;;;4.38;;
64712;SDS011;51140;45.340;5.980;2023-01-08T09:29:35;19.70;;;14.32;;
64712;SDS011;51140;45.340;5.980;2023-01-08T09:32:01;9.85;;;4.68;;
64712;SDS011;51140;45.340;5.980;2023-01-08T09:34:31;9.73;;;5.38;;
64712;SDS011;51140;45.340;5.980;2023-01-08T09:36:57;16.90;;;10.80;;
64712;SDS011;51140;45.340;5.980;2023-01-08T09:39:23;11.32;;;5.90;;
64712;SDS011;51140;45.340;5.980;2023-01-08T09:41:48;10.18;;;6.00;;
64712;SDS011;51140;45.340;5.980;2023-01-08T09:44:17;14.77;;;9.88;;
64712;SDS011;51140;45.340;5.980;2023-01-08T09:46:46;16.05;;;10.00;;
64712;SDS011;51140;45.340;5.980;2023-01-08T09:49:19;12.57;;;5.93;;
64712;SDS011;51140;45.340;5.980;2023-01-08T09:51:48;15.20;;;8.50;;
64712;SDS011;51140;45.340;5.980;2023-01-08T09:54:14;10.88;;;5.25;;
64712;SDS011;51140;45.340;5.980;2023-01-08T09:56:41;11.38;;;4.03;;
64712;SDS011;51140;45.340;5.980;2023-01-08T09:59:12;7.05;;;3.55;;
64712;SDS011;51140;45.340;5.980;2023-01-08T10:01:42;7.80;;;3.53;;
64712;SDS011;51140;45.340;5.980;2023-01-08T10:04:44;8.30;;;3.80;;
64712;SDS011;51140;45.340;5.980;2023-01-08T10:09:48;8.40;;;4.25;;
64712;SDS011;51140;45.340;5.980;2023-01-08T10:12:15;16.58;;;9.02;;
64712;SDS011;51140;45.340;5.980;2023-01-08T10:14:48;16.27;;;8.10;;
64712;SDS011;51140;45.340;5.980;2023-01-08T10:22:39;23.83;;;13.52;;
64712;SDS011;51140;45.340;5.980;2023-01-08T10:25:15;23.98;;;14.20;;
64712;SDS011;51140;45.340;5.980;2023-01-08T10:27:49;26.30;;;13.43;;
64712;SDS011;51140;45.340;5.980;2023-01-08T10:32:53;16.25;;;8.43;;
64712;SDS011;51140;45.340;5.980;2023-01-08T10:35:23;17.08;;;9.70;;
64712;SDS011;51140;45.340;5.980;2023-01-08T10:37:57;10.50;;;7.25;;
64712;SDS011;51140;45.340;5.980;2023-01-08T10:43:04;11.90;;;7.32;;
64712;SDS011;51140;45.340;5.980;2023-01-08T10:45:32;11.02;;;5.03;;
64712;SDS011;51140;45.340;5.980;2023-01-08T10:47:58;60.83;;;21.85;;
64712;SDS011;51140;45.340;5.980;2023-01-08T10:50:29;311.17;;;91.82;;
64712;SDS011;51140;45.340;5.980;2023-01-08T10:52:57;262.65;;;77.72;;
64712;SDS011;51140;45.340;5.980;2023-01-08T10:55:26;38.47;;;20.05;;
64712;SDS011;51140;45.340;5.980;2023-01-08T10:58:00;30.25;;;17.33;;
64712;SDS011;51140;45.340;5.980;2023-01-08T11:00:35;21.42;;;13.13;;
64712;SDS011;51140;45.340;5.980;2023-01-08T11:03:05;17.25;;;8.95;;
64712;SDS011;51140;45.340;5.980;2023-01-08T11:05:38;16.77;;;8.65;;
64712;SDS011;51140;45.340;5.980;2023-01-08T11:08:06;13.13;;;7.28;;
64712;SDS011;51140;45.340;5.980;2023-01-08T11:10:41;11.52;;;5.97;;
64712;SDS011;51140;45.340;5.980;2023-01-08T11:13:13;11.25;;;6.05;;
64712;SDS011;51140;45.340;5.980;2023-01-08T11:15:42;13.13;;;6.10;;
64712;SDS011;51140;45.340;5.980;2023-01-08T11:20:47;14.20;;;8.50;;
64712;SDS011;51140;45.340;5.980;2023-01-08T11:23:23;14.82;;;8.70;;
64712;SDS011;51140;45.340;5.980;2023-01-08T11:25:53;15.32;;;9.95;;
64712;SDS011;51140;45.340;5.980;2023-01-08T11:28:32;66.38;;;31.27;;
64712;SDS011;51140;45.340;5.980;2023-01-08T11:31:32;31.98;;;18.17;;
64712;SDS011;51140;45.340;5.980;2023-01-08T11:37:00;25.67;;;16.27;;
64712;SDS011;51140;45.340;5.980;2023-01-08T11:39:33;20.42;;;12.75;;
64712;SDS011;51140;45.340;5.980;2023-01-08T11:45:05;13.38;;;7.03;;
64712;SDS011;51140;45.340;5.980;2023-01-08T11:52:51;36.92;;;21.65;;
64712;SDS011;51140;45.340;5.980;2023-01-08T11:55:23;27.85;;;17.10;;
64712;SDS011;51140;45.340;5.980;2023-01-08T12:00:47;26.05;;;15.77;;
64712;SDS011;51140;45.340;5.980;2023-01-08T12:03:46;21.15;;;13.15;;
64712;SDS011;51140;45.340;5.980;2023-01-08T12:20:14;14.73;;;9.55;;
64712;SDS011;51140;45.340;5.980;2023-01-08T12:22:57;14.95;;;9.10;;
64712;SDS011;51140;45.340;5.980;2023-01-08T12:34:03;39.95;;;24.15;;
64712;SDS011;51140;45.340;5.980;2023-01-08T12:36:39;21.40;;;13.38;;
64712;SDS011;51140;45.340;5.980;2023-01-08T12:39:21;24.25;;;13.63;;
64712;SDS011;51140;45.340;5.980;2023-01-08T12:41:53;18.77;;;11.77;;
64712;SDS011;51140;45.340;5.980;2023-01-08T12:44:25;19.83;;;12.73;;
64712;SDS011;51140;45.340;5.980;2023-01-08T12:46:54;19.27;;;12.63;;
64712;SDS011;51140;45.340;5.980;2023-01-08T12:49:38;27.15;;;16.90;;
64712;SDS011;51140;45.340;5.980;2023-01-08T12:52:27;39.90;;;26.33;;
64712;SDS011;51140;45.340;5.980;2023-01-08T12:57:38;13.40;;;7.88;;
64712;SDS011;51140;45.340;5.980;2023-01-08T13:07:46;12.65;;;6.43;;
64712;SDS011;51140;45.340;5.980;2023-01-08T13:12:55;16.75;;;9.43;;
64712;SDS011;51140;45.340;5.980;2023-01-08T13:15:23;15.48;;;9.93;;
64712;SDS011;51140;45.340;5.980;2023-01-08T13:17:51;11.75;;;6.20;;
64712;SDS011;51140;45.340;5.980;2023-01-08T13:20:20;15.57;;;7.53;;
64712;SDS011;51140;45.340;5.980;2023-01-08T13:22:52;10.55;;;7.03;;
64712;SDS011;51140;45.340;5.980;2023-01-08T13:27:45;16.95;;;11.27;;
64712;SDS011;51140;45.340;5.980;2023-01-08T13:36:28;36.88;;;17.77;;
64712;SDS011;51140;45.340;5.980;2023-01-08T13:44:35;41.47;;;27.17;;
64712;SDS011;51140;45.340;5.980;2023-01-08T13:47:25;24.80;;;16.65;;
64712;SDS011;51140;45.340;5.980;2023-01-08T13:49:52;28.75;;;18.58;;
64712;SDS011;51140;45.340;5.980;2023-01-08T13:52:29;18.70;;;16.27;;
64712;SDS011;51140;45.340;5.980;2023-01-08T13:57:48;11.88;;;6.28;;
64712;SDS011;51140;45.340;5.980;2023-01-08T14:00:25;13.65;;;8.15;;
64712;SDS011;51140;45.340;5.980;2023-01-08T14:02:55;19.73;;;10.32;;
64712;SDS011;51140;45.340;5.980;2023-01-08T14:07:50;20.33;;;11.70;;
64712;SDS011;51140;45.340;5.980;2023-01-08T14:10:16;15.77;;;9.25;;
64712;SDS011;51140;45.340;5.980;2023-01-08T14:12:42;12.70;;;6.90;;
64712;SDS011;51140;45.340;5.980;2023-01-08T14:15:11;12.90;;;7.03;;
64712;SDS011;51140;45.340;5.980;2023-01-08T14:17:51;14.82;;;7.20;;
64712;SDS011;51140;45.340;5.980;2023-01-08T14:20:33;12.77;;;7.03;;
64712;SDS011;51140;45.340;5.980;2023-01-08T14:23:06;21.38;;;15.05;;
64712;SDS011;51140;45.340;5.980;2023-01-08T14:25:35;13.32;;;8.98;;
64712;SDS011;51140;45.340;5.980;2023-01-08T14:28:02;20.67;;;11.75;;
64712;SDS011;51140;45.340;5.980;2023-01-08T14:30:30;15.48;;;9.25;;
64712;SDS011;51140;45.340;5.980;2023-01-08T14:32:56;19.02;;;12.02;;
64712;SDS011;51140;45.340;5.980;2023-01-08T14:35:27;96.18;;;50.65;;
64712;SDS011;51140;45.340;5.980;2023-01-08T14:37:56;29.25;;;17.25;;
64712;SDS011;51140;45.340;5.980;2023-01-08T14:40:27;44.10;;;25.45;;
64712;SDS011;51140;45.340;5.980;2023-01-08T14:43:01;12.30;;;8.00;;
64712;SDS011;51140;45.340;5.980;2023-01-08T14:45:31;17.50;;;10.02;;
64712;SDS011;51140;45.340;5.980;2023-01-08T14:48:08;15.07;;;9.60;;
64712;SDS011;51140;45.340;5.980;2023-01-08T14:50:58;23.00;;;16.00;;
64712;SDS011;51140;45.340;5.980;2023-01-08T14:56:06;13.55;;;8.63;;
64712;SDS011;51140;45.340;5.980;2023-01-08T14:58:36;15.68;;;8.88;;
64712;SDS011;51140;45.340;5.980;2023-01-08T15:01:17;13.00;;;7.22;;
64712;SDS011;51140;45.340;5.980;2023-01-08T15:03:46;11.30;;;6.13;;
64712;SDS011;51140;45.340;5.980;2023-01-08T15:06:30;10.18;;;5.82;;
64712;SDS011;51140;45.340;5.980;2023-01-08T15:08:57;8.90;;;5.07;;
64712;SDS011;51140;45.340;5.980;2023-01-08T15:11:24;10.57;;;5.30;;
64712;SDS011;51140;45.340;5.980;2023-01-08T15:13:54;11.57;;;6.18;;
64712;SDS011;51140;45.340;5.980;2023-01-08T15:21:47;11.63;;;7.25;;
64712;SDS011;51140;45.340;5.980;2023-01-08T15:27:17;11.20;;;6.90;;
64712;SDS011;51140;45.340;5.980;2023-01-08T15:29:47;15.40;;;8.07;;
64712;SDS011;51140;45.340;5.980;2023-01-08T15:34:40;18.95;;;10.90;;
64712;SDS011;51140;45.340;5.980;2023-01-08T15:37:06;35.05;;;19.17;;
64712;SDS011;51140;45.340;5.980;2023-01-08T15:39:32;22.42;;;13.85;;
64712;SDS011;51140;45.340;5.980;2023-01-08T15:42:16;21.08;;;13.07;;
64712;SDS011;51140;45.340;5.980;2023-01-08T15:45:02;16.38;;;10.43;;
64712;SDS011;51140;45.340;5.980;2023-01-08T15:47:29;14.55;;;8.10;;
64712;SDS011;51140;45.340;5.980;2023-01-08T15:49:55;13.05;;;6.63;;
64712;SDS011;51140;45.340;5.980;2023-01-08T15:52:21;13.90;;;7.93;;
64712;SDS011;51140;45.340;5.980;2023-01-08T15:54:53;11.25;;;6.22;;
64712;SDS011;51140;45.340;5.980;2023-01-08T15:57:23;10.82;;;6.72;;
64712;SDS011;51140;45.340;5.980;2023-01-08T15:59:48;15.90;;;7.82;;
64712;SDS011;51140;45.340;5.980;2023-01-08T16:02:14;15.43;;;8.95;;
64712;SDS011;51140;45.340;5.980;2023-01-08T16:04:40;17.63;;;8.02;;
64712;SDS011;51140;45.340;5.980;2023-01-08T16:07:06;13.95;;;7.47;;
64712;SDS011;51140;45.340;5.980;2023-01-08T16:09:31;14.35;;;8.20;;
64712;SDS011;51140;45.340;5.980;2023-01-08T16:11:57;14.77;;;8.38;;
64712;SDS011;51140;45.340;5.980;2023-01-08T16:14:22;12.57;;;7.25;;
64712;SDS011;51140;45.340;5.980;2023-01-08T16:16:47;13.23;;;7.18;;
64712;SDS011;51140;45.340;5.980;2023-01-08T16:19:13;12.73;;;7.47;;
64712;SDS011;51140;45.340;5.980;2023-01-08T16:21:38;11.40;;;7.07;;
64712;SDS011;51140;45.340;5.980;2023-01-08T16:24:05;11.95;;;7.07;;
64712;SDS011;51140;45.340;5.980;2023-01-08T16:26:31;12.27;;;7.47;;
64712;SDS011;51140;45.340;5.980;2023-01-08T16:28:56;12.63;;;7.38;;
64712;SDS011;51140;45.340;5.980;2023-01-08T16:31:22;11.25;;;6.57;;
64712;SDS011;51140;45.340;5.980;2023-01-08T16:33:47;13.98;;;6.63;;
64712;SDS011;51140;45.340;5.980;2023-01-08T16:36:14;14.70;;;8.35;;
64712;SDS011;51140;45.340;5.980;2023-01-08T16:38:39;10.60;;;5.82;;